createdAt,value
2017-12-08T00:00:20.674Z,4.7
2017-12-08T00:02:17.410Z,4.6
2017-12-08T00:04:21.112Z,5
2017-12-08T00:06:16.853Z,5.6
2017-12-08T00:08:16.580Z,5.2
2017-12-08T00:10:17.310Z,5.2
2017-12-08T00:12:21.019Z,5.2
2017-12-08T00:14:16.748Z,4.9
2017-12-08T00:16:17.467Z,4.6
2017-12-08T00:18:18.176Z,4.9
2017-12-08T00:20:20.886Z,4.8
2017-12-08T00:22:16.624Z,4.9
2017-12-08T00:24:21.321Z,4.7
2017-12-08T00:26:18.065Z,4.8
2017-12-08T00:28:20.756Z,4.9
2017-12-08T00:30:20.460Z,5
2017-12-08T00:32:21.178Z,4.8
2017-12-08T00:34:20.880Z,5
2017-12-08T00:36:17.603Z,5
2017-12-08T00:38:21.302Z,4.9
2017-12-08T00:40:17.040Z,4.9
2017-12-08T00:42:16.766Z,4.2
2017-12-08T00:44:16.497Z,4.2
2017-12-08T00:46:17.207Z,4.3
2017-12-08T00:48:20.930Z,5.3
2017-12-08T00:50:20.640Z,4.4
2017-12-08T00:52:21.352Z,4.3
2017-12-08T00:54:21.066Z,4.5
2017-12-08T00:56:17.807Z,4.4
2017-12-08T00:58:16.545Z,4.3
2017-12-08T01:00:18.265Z,4.1
2017-12-08T01:02:20.979Z,4.8
2017-12-08T01:04:16.736Z,4.5
2017-12-08T01:08:17.213Z,4.5
2017-12-08T01:10:17.943Z,4.2
2017-12-08T01:12:16.675Z,4.2
2017-12-08T01:14:17.402Z,4.5
2017-12-08T01:16:17.137Z,4.3
2017-12-08T01:18:17.862Z,4
2017-12-08T01:20:20.585Z,3.9
2017-12-08T01:22:17.321Z,4.4
2017-12-08T01:24:21.037Z,4.6
2017-12-08T01:26:17.771Z,4
2017-12-08T01:28:20.472Z,5.2
2017-12-08T01:30:17.217Z,3.7
2017-12-08T01:32:20.931Z,3.9
2017-12-08T01:34:16.669Z,3.7
2017-12-08T01:36:17.400Z,3.7
2017-12-08T01:38:21.106Z,3.5
2017-12-08T01:40:17.843Z,4
2017-12-08T01:42:16.570Z,3.6
2017-12-08T01:44:17.303Z,3.4
2017-12-08T01:46:17.040Z,3.2
2017-12-08T01:48:20.744Z,3.5
2017-12-08T01:50:20.477Z,3.5
2017-12-08T01:52:17.198Z,3.1
2017-12-08T01:54:20.918Z,2.8
2017-12-08T01:56:17.666Z,2.9
2017-12-08T01:58:17.397Z,2.7
2017-12-08T02:00:21.118Z,3.1
2017-12-08T02:02:16.880Z,2.6
2017-12-08T02:04:16.613Z,2.6
2017-12-08T02:06:17.347Z,2.7
2017-12-08T02:08:21.055Z,2.9
2017-12-08T02:10:17.802Z,2.9
2017-12-08T02:12:16.543Z,2.4
2017-12-08T02:14:17.284Z,2.3
2017-12-08T02:16:17.015Z,2.4
2017-12-08T02:18:17.745Z,2.4
2017-12-08T02:20:21.458Z,2.6
2017-12-08T02:22:17.216Z,1.8
2017-12-08T02:24:20.914Z,2.5
2017-12-08T02:26:17.654Z,2.3
2017-12-08T02:28:21.358Z,2.7
2017-12-08T02:30:21.088Z,2
2017-12-08T02:32:16.838Z,2.4
2017-12-08T02:34:16.565Z,2.3
2017-12-08T02:36:17.298Z,2.4
2017-12-08T02:38:21.026Z,2.5
2017-12-08T02:40:17.749Z,2.1
2017-12-08T02:42:16.474Z,2.2
2017-12-08T02:44:21.187Z,2.2
2017-12-08T02:46:17.927Z,1.8
2017-12-08T02:48:20.629Z,1.7
2017-12-08T02:50:21.357Z,1.6
2017-12-08T02:52:21.082Z,2.2
2017-12-08T02:54:20.807Z,2.3
2017-12-08T02:56:17.533Z,1.6
2017-12-08T02:58:21.235Z,1.6
2017-12-08T03:00:20.954Z,1.9
2017-12-08T03:02:16.723Z,2
2017-12-08T03:04:18.414Z,2
2017-12-08T03:06:18.145Z,1.9
2017-12-08T03:08:20.846Z,1.3
2017-12-08T03:10:17.592Z,2
2017-12-08T03:12:21.303Z,1.7
2017-12-08T03:14:17.046Z,1.5
2017-12-08T03:16:17.774Z,1.8
2017-12-08T03:18:17.501Z,1.7
2017-12-08T03:20:21.214Z,1.8
2017-12-08T03:22:16.961Z,1.7
2017-12-08T03:24:20.670Z,1.3
2017-12-08T03:26:17.425Z,2
2017-12-08T03:28:21.125Z,1.3
2017-12-08T03:30:20.851Z,1.5
2017-12-08T03:32:16.588Z,2
2017-12-08T03:34:21.288Z,1.7
2017-12-08T03:36:17.015Z,1.6
2017-12-08T03:38:16.728Z,1.4
2017-12-08T03:40:17.444Z,1.4
2017-12-08T03:42:17.175Z,1.8
2017-12-08T03:44:20.859Z,1.5
2017-12-08T03:46:17.594Z,1.7
2017-12-08T03:48:21.288Z,1.5
2017-12-08T03:50:20.999Z,1.6
2017-12-08T03:52:16.736Z,1.3
2017-12-08T03:54:21.433Z,1.5
2017-12-08T03:56:17.158Z,1.5
2017-12-08T03:58:20.861Z,1.4
2017-12-08T04:00:17.566Z,1.7
2017-12-08T04:02:21.275Z,1.4
2017-12-08T04:04:16.996Z,1.3
2017-12-08T04:06:17.712Z,1.3
2017-12-08T04:08:21.394Z,1.4
2017-12-08T04:10:17.124Z,1.3
2017-12-08T04:12:20.815Z,1.2
2017-12-08T04:14:16.561Z,1.4
2017-12-08T04:16:18.247Z,1.4
2017-12-08T04:18:17.965Z,1.3
2017-12-08T04:20:17.666Z,1
2017-12-08T04:22:21.370Z,1.9
2017-12-08T04:24:17.101Z,1.4
2017-12-08T04:26:17.814Z,1.3
2017-12-08T04:28:20.508Z,1.3
2017-12-08T04:30:21.214Z,1.7
2017-12-08T04:32:16.942Z,1.4
2017-12-08T04:34:20.633Z,1.4
2017-12-08T04:36:17.361Z,1.6
2017-12-08T04:38:21.047Z,1.6
2017-12-08T04:40:17.780Z,1.2
2017-12-08T04:42:20.486Z,1.2
2017-12-08T04:44:17.220Z,1
2017-12-08T04:46:16.929Z,1.4
2017-12-08T04:48:20.620Z,1.3
2017-12-08T04:50:21.331Z,1.3
2017-12-08T04:52:21.043Z,1.4
2017-12-08T04:54:20.746Z,1.3
2017-12-08T04:56:17.481Z,1.7
2017-12-08T04:58:21.165Z,1.2
2017-12-08T05:00:20.875Z,1.1
2017-12-08T05:02:16.608Z,1.3
2017-12-08T05:04:21.308Z,1.6
2017-12-08T05:06:18.040Z,1.6
2017-12-08T05:08:20.744Z,1.3
2017-12-08T05:10:17.482Z,1.6
2017-12-08T05:12:17.201Z,1.2
2017-12-08T05:14:20.904Z,1.6
2017-12-08T05:16:17.637Z,1.9
2017-12-08T05:18:18.349Z,1.3
2017-12-08T05:20:21.047Z,1.3
2017-12-08T05:22:16.783Z,1.3
2017-12-08T05:24:20.472Z,1.6
2017-12-08T05:26:18.199Z,1.8
2017-12-08T05:28:20.907Z,1.1
2017-12-08T05:30:20.620Z,1.3
2017-12-08T05:32:21.315Z,1.3
2017-12-08T05:34:21.022Z,1.3
2017-12-08T05:36:17.745Z,1.6
2017-12-08T05:38:20.435Z,1.1
2017-12-08T05:40:17.160Z,1.4
2017-12-08T05:42:20.852Z,1.5
2017-12-08T05:44:16.598Z,1.5
2017-12-08T05:46:17.312Z,1.5
2017-12-08T05:48:18.000Z,1.7
2017-12-08T05:50:20.706Z,1.6
2017-12-08T05:52:17.434Z,1.2
2017-12-08T05:54:21.120Z,1.4
2017-12-08T05:56:17.853Z,1.8
2017-12-08T05:58:20.554Z,1.7
2017-12-08T06:00:21.257Z,1.7
2017-12-08T06:02:20.984Z,1.4
2017-12-08T06:04:20.677Z,1.3
2017-12-08T06:06:17.395Z,1.6
2017-12-08T06:08:21.083Z,1.7
2017-12-08T06:10:17.801Z,1.5
2017-12-08T06:12:20.499Z,1.4
2017-12-08T06:14:21.198Z,1.3
2017-12-08T06:16:16.913Z,1.6
2017-12-08T06:18:17.630Z,1.3
2017-12-08T06:20:18.325Z,1.2
2017-12-08T06:22:21.018Z,1.3
2017-12-08T06:24:16.745Z,1.7
2017-12-08T06:26:17.443Z,1.8
2017-12-08T06:28:21.134Z,1.8
2017-12-08T06:30:20.846Z,1.1
2017-12-08T06:32:20.544Z,1.4
2017-12-08T06:34:21.260Z,1.6
2017-12-08T06:36:16.966Z,2.1
2017-12-08T06:38:20.642Z,2.1
2017-12-08T06:40:17.359Z,1.7
2017-12-08T06:42:21.058Z,1.8
2017-12-08T06:44:20.749Z,2.6
2017-12-08T06:46:17.464Z,1.8
2017-12-08T06:48:21.144Z,1.8
2017-12-08T06:50:20.854Z,1.7
2017-12-08T06:52:20.544Z,1.4
2017-12-08T06:54:21.232Z,2.1
2017-12-08T06:56:16.950Z,1.9
2017-12-08T06:58:17.626Z,1.4
2017-12-08T07:00:18.319Z,1.5
2017-12-08T07:02:18.014Z,1.6
2017-12-08T07:04:17.699Z,1.6
2017-12-08T07:06:17.408Z,2.3
2017-12-08T07:08:21.081Z,1.8
2017-12-08T07:10:17.800Z,1.3
2017-12-08T07:12:20.478Z,1.5
2017-12-08T07:14:21.172Z,1.9
2017-12-08T07:16:17.882Z,2.7
2017-12-08T07:18:17.577Z,1.6
2017-12-08T07:20:18.266Z,1.4
2017-12-08T07:22:17.979Z,1.6
2017-12-08T07:24:20.673Z,1.5
2017-12-08T07:26:17.411Z,1.9
2017-12-08T07:28:21.125Z,1.6
2017-12-08T07:30:20.840Z,1.6
2017-12-08T07:32:16.581Z,1.8
2017-12-08T07:34:17.308Z,1.6
2017-12-08T07:36:18.032Z,1.5
2017-12-08T07:38:16.777Z,1.8
2017-12-08T07:40:17.494Z,2.4
2017-12-08T07:42:17.222Z,1.5
2017-12-08T07:44:20.913Z,1.7
2017-12-08T07:46:17.633Z,1.5
2017-12-08T07:48:21.319Z,1.8
2017-12-08T07:50:18.035Z,1.4
2017-12-08T07:52:20.723Z,2
2017-12-08T07:54:17.454Z,1.1
2017-12-08T07:56:17.151Z,1.5
2017-12-08T07:58:20.833Z,1.4
2017-12-08T08:00:20.541Z,1.9
2017-12-08T08:02:21.237Z,2
2017-12-08T08:04:16.969Z,1.4
2017-12-08T08:06:17.663Z,1.8
2017-12-08T08:08:21.357Z,1.4
2017-12-08T08:10:17.079Z,2
2017-12-08T08:12:20.768Z,1.5
2017-12-08T08:14:20.470Z,1.9
2017-12-08T08:16:17.174Z,1.5
2017-12-08T08:18:17.877Z,1.8
2017-12-08T08:20:17.578Z,1.4
2017-12-08T08:22:21.266Z,1.7
2017-12-08T08:24:20.958Z,2
2017-12-08T08:26:17.685Z,2.3
2017-12-08T08:28:21.366Z,1.7
2017-12-08T08:30:18.077Z,1.8
2017-12-08T08:32:20.764Z,1.8
2017-12-08T08:34:20.459Z,1.4
2017-12-08T08:36:17.173Z,1.7
2017-12-08T08:38:20.856Z,1.4
2017-12-08T08:40:17.562Z,2.6
2017-12-08T08:42:21.261Z,1.8
2017-12-08T08:44:20.965Z,2.4
2017-12-08T08:46:17.679Z,1.8
2017-12-08T08:48:21.376Z,1.7
2017-12-08T08:50:18.102Z,1.7
2017-12-08T08:52:20.801Z,1.6
2017-12-08T08:54:20.499Z,1.9
2017-12-08T08:56:17.225Z,1.5
2017-12-08T08:58:17.932Z,1.6
2017-12-08T09:00:17.629Z,1.5
2017-12-08T09:02:21.314Z,1.9
2017-12-08T09:04:21.025Z,1.4
2017-12-08T09:06:17.749Z,1.9
2017-12-08T09:08:20.441Z,1.5
2017-12-08T09:10:17.157Z,1.6
2017-12-08T09:12:20.848Z,2.2
2017-12-08T09:14:20.559Z,1.6
2017-12-08T09:16:17.263Z,1.2
2017-12-08T09:18:17.968Z,1.9
2017-12-08T09:20:20.659Z,1.7
2017-12-08T09:22:21.363Z,2.1
2017-12-08T09:24:21.064Z,1.7
2017-12-08T09:26:17.784Z,1.9
2017-12-08T09:28:20.479Z,1.2
2017-12-08T09:30:21.181Z,1.5
2017-12-08T09:32:20.884Z,1.6
2017-12-08T09:34:20.592Z,2.3
2017-12-08T09:36:17.317Z,1.7
2017-12-08T09:38:21.025Z,1.3
2017-12-08T09:40:17.753Z,1.1
2017-12-08T09:42:16.469Z,1.3
2017-12-08T09:44:21.209Z,1.1
2017-12-08T09:46:17.905Z,1
2017-12-08T09:48:17.590Z,1.2
2017-12-08T09:50:21.294Z,1.4
2017-12-08T09:52:21.008Z,1.3
2017-12-08T09:54:16.741Z,1.2
2017-12-08T09:56:17.453Z,1.1
2017-12-08T09:58:21.149Z,0.9
2017-12-08T10:00:20.862Z,0.9
2017-12-08T10:02:16.609Z,0.8
2017-12-08T10:04:21.288Z,1.4
2017-12-08T10:06:17.021Z,1
2017-12-08T10:08:20.716Z,0.8
2017-12-08T10:10:17.448Z,0.7
2017-12-08T10:12:21.139Z,0.8
2017-12-08T10:14:16.863Z,0.8
2017-12-08T10:16:17.579Z,0.9
2017-12-08T10:18:18.285Z,0.7
2017-12-08T10:20:17.984Z,1.1
2017-12-08T10:22:20.678Z,0.8
2017-12-08T10:24:21.371Z,1.2
2017-12-08T10:26:17.081Z,0.7
2017-12-08T10:28:20.766Z,0.7
2017-12-08T10:30:17.467Z,1
2017-12-08T10:32:21.137Z,0.9
2017-12-08T10:34:20.838Z,0.8
2017-12-08T10:36:17.541Z,0.6
2017-12-08T10:38:21.210Z,1.1
2017-12-08T10:40:17.916Z,1.3
2017-12-08T10:42:17.601Z,0.7
2017-12-08T10:44:21.284Z,0.8
2017-12-08T10:46:17.008Z,0.8
2017-12-08T10:48:20.700Z,0.9
2017-12-08T10:50:21.467Z,0.7
2017-12-08T10:52:18.136Z,0.7
2017-12-08T10:54:20.837Z,1
2017-12-08T10:56:17.562Z,1.1
2017-12-08T10:58:21.245Z,0.7
2017-12-08T11:00:17.954Z,1
2017-12-08T11:02:20.653Z,1.2
2017-12-08T11:04:21.359Z,0.7
2017-12-08T11:06:17.084Z,1.5
2017-12-08T11:08:16.803Z,1.9
2017-12-08T11:10:17.504Z,0.9
2017-12-08T11:12:21.191Z,1.4
2017-12-08T11:14:16.923Z,0.9
2017-12-08T11:16:17.637Z,1.7
2017-12-08T11:18:18.341Z,1.6
2017-12-08T11:20:18.057Z,0.7
2017-12-08T11:22:20.743Z,0.8
2017-12-08T11:24:17.478Z,1
2017-12-08T11:26:17.198Z,1.1
2017-12-08T11:28:20.894Z,1.2
2017-12-08T11:30:20.604Z,1
2017-12-08T11:32:17.341Z,1.4
2017-12-08T11:34:21.028Z,0.9
2017-12-08T11:36:17.763Z,1.2
2017-12-08T11:38:20.456Z,0.6
2017-12-08T11:40:17.165Z,1
2017-12-08T11:42:20.837Z,0.9
2017-12-08T11:44:20.547Z,1
2017-12-08T11:46:17.260Z,1.1
2017-12-08T11:48:20.952Z,1.2
2017-12-08T11:50:17.652Z,1.2
2017-12-08T11:52:21.356Z,2.1
2017-12-08T11:54:21.048Z,0.6
2017-12-08T11:56:17.762Z,0.8
2017-12-08T11:58:20.445Z,1.2
2017-12-08T12:00:21.136Z,1.2
2017-12-08T12:02:20.842Z,1.3
2017-12-08T12:04:20.535Z,1.2
2017-12-08T12:06:18.245Z,1.1
2017-12-08T12:08:20.938Z,1.4
2017-12-08T12:10:17.640Z,1
2017-12-08T12:12:21.321Z,1.2
2017-12-08T12:14:21.030Z,0.8
2017-12-08T12:16:17.737Z,1.6
2017-12-08T12:18:17.435Z,1.4
2017-12-08T12:20:21.115Z,1.7
2017-12-08T12:22:16.840Z,1
2017-12-08T12:24:20.524Z,1.5
2017-12-08T12:26:17.225Z,1.2
2017-12-08T12:28:20.915Z,1.6
2017-12-08T12:30:17.626Z,0.9
2017-12-08T12:32:17.332Z,1.4
2017-12-08T12:34:21.039Z,1.5
2017-12-08T12:36:17.758Z,1.1
2017-12-08T12:38:20.441Z,2
2017-12-08T12:40:17.175Z,1.3
2017-12-08T12:42:20.855Z,1
2017-12-08T12:44:16.578Z,1.4
2017-12-08T12:46:17.282Z,1.2
2017-12-08T12:48:20.977Z,1.4
2017-12-08T12:50:20.683Z,1.2
2017-12-08T12:52:21.381Z,1
2017-12-08T12:54:21.082Z,1.4
2017-12-08T12:56:17.811Z,1.5
2017-12-08T12:58:20.498Z,1.1
2017-12-08T13:00:21.208Z,0.9
2017-12-08T13:02:20.910Z,1.1
2017-12-08T13:04:16.638Z,1.4
2017-12-08T13:06:17.358Z,1.5
2017-12-08T13:08:21.058Z,1.2
2017-12-08T13:10:17.845Z,1.5
2017-12-08T13:12:17.520Z,1.3
2017-12-08T13:14:21.228Z,1.2
2017-12-08T13:16:16.966Z,1.1
2017-12-08T13:18:17.701Z,1.4
2017-12-08T13:20:21.409Z,1.3
2017-12-08T13:22:17.154Z,1.2
2017-12-08T13:24:20.865Z,1.6
2017-12-08T13:26:17.624Z,1.4
2017-12-08T13:28:21.327Z,1.1
2017-12-08T13:30:21.063Z,1.7
2017-12-08T13:32:16.812Z,1.4
2017-12-08T13:34:20.522Z,1.2
2017-12-08T13:36:17.255Z,1.6
2017-12-08T13:38:20.964Z,0.9
2017-12-08T13:40:17.700Z,1.6
2017-12-08T13:42:17.445Z,1.2
2017-12-08T13:44:21.150Z,1.1
2017-12-08T13:46:16.880Z,1.4
2017-12-08T13:48:16.606Z,1
2017-12-08T13:50:18.314Z,0.9
2017-12-08T13:52:21.013Z,1.4
2017-12-08T13:54:20.724Z,1.3
2017-12-08T13:56:17.450Z,1.4
2017-12-08T13:58:21.149Z,1.5
2017-12-08T14:00:20.846Z,1.4
2017-12-08T14:02:20.544Z,1
2017-12-08T14:04:17.266Z,1.1
2017-12-08T14:06:16.969Z,1.4
2017-12-08T14:08:20.668Z,0.9
2017-12-08T14:10:17.386Z,1.2
2017-12-08T14:12:21.071Z,1
2017-12-08T14:14:20.784Z,1.1
2017-12-08T14:16:17.489Z,1
2017-12-08T14:18:18.186Z,0.7
2017-12-08T14:20:20.877Z,0.9
2017-12-08T14:22:20.577Z,1.3
2017-12-08T14:24:21.271Z,1.1
2017-12-08T14:26:16.999Z,0.9
2017-12-08T14:28:20.685Z,1.6
2017-12-08T14:30:21.376Z,1.1
2017-12-08T14:32:21.077Z,1.3
2017-12-08T14:34:20.772Z,1.1
2017-12-08T14:36:17.483Z,0.8
2017-12-08T14:38:21.162Z,0.8
2017-12-08T14:40:17.871Z,0.8
2017-12-08T14:42:20.551Z,1.1
2017-12-08T14:44:21.256Z,1.7
2017-12-08T14:46:16.973Z,1.4
2017-12-08T14:48:17.639Z,1.5
2017-12-08T14:50:18.324Z,1.4
2017-12-08T14:52:20.997Z,1.5
2017-12-08T14:54:20.692Z,1
2017-12-08T14:56:17.393Z,1.2
2017-12-08T14:58:18.074Z,1.5
2017-12-08T15:00:17.780Z,1.3
2017-12-08T15:02:20.474Z,1.7
2017-12-08T15:04:18.150Z,2.1
2017-12-08T15:06:16.837Z,1.9
2017-12-08T15:08:20.508Z,1.8
2017-12-08T15:10:17.214Z,1.6
2017-12-08T15:12:17.890Z,1.3
2017-12-08T15:14:20.567Z,1.3
2017-12-08T15:16:17.269Z,1.6
2017-12-08T15:18:17.957Z,2.9
2017-12-08T15:22:17.320Z,2.6
2017-12-08T15:24:20.990Z,3.4
2017-12-08T15:26:17.685Z,2.3
2017-12-08T15:28:21.351Z,2.4
2017-12-08T15:30:18.044Z,2.3
2017-12-08T15:32:20.714Z,1.9
2017-12-08T15:34:21.405Z,1.3
2017-12-08T15:36:17.105Z,0.8
2017-12-08T15:38:20.765Z,1.2
2017-12-08T15:40:17.459Z,0.6
2017-12-08T15:42:18.122Z,0.5
2017-12-08T15:44:17.787Z,0.6
2017-12-08T15:46:17.436Z,0.4
2017-12-08T15:48:18.083Z,0.5
2017-12-08T15:50:17.727Z,0.5
2017-12-08T15:52:18.368Z,0.6
2017-12-08T15:54:17.999Z,0.5
2017-12-08T15:56:17.623Z,0.4
2017-12-08T15:58:18.246Z,0.5
2017-12-08T16:00:17.866Z,0.7
2017-12-08T16:02:17.495Z,0.5
2017-12-08T16:04:18.116Z,0.7
2017-12-08T16:06:16.742Z,0.5
2017-12-08T16:08:18.353Z,0.6
2017-12-08T16:10:16.970Z,0.6
2017-12-08T16:12:17.580Z,0.4
2017-12-08T16:14:18.181Z,0.3
2017-12-08T16:16:16.796Z,0.3
2017-12-08T16:18:17.398Z,0.3
2017-12-08T16:20:18.017Z,0.4
2017-12-08T16:22:17.613Z,0.4
2017-12-08T16:24:18.209Z,0.7
2017-12-08T16:26:17.812Z,0.4
2017-12-08T16:28:17.417Z,0.3
2017-12-08T16:30:18.018Z,0.4
2017-12-08T16:32:17.637Z,0.3
2017-12-08T16:34:18.247Z,0.4
2017-12-08T16:36:17.874Z,0.7
2017-12-08T16:38:17.479Z,0.3
2017-12-08T16:40:17.103Z,0.3
2017-12-08T16:42:17.714Z,0.4
2017-12-08T16:44:18.326Z,0.4
2017-12-08T16:46:16.928Z,0.5
2017-12-08T16:48:17.556Z,0.5
2017-12-08T16:50:18.173Z,0.6
2017-12-08T16:52:17.801Z,0.4
2017-12-08T16:54:17.402Z,0.9
2017-12-08T16:56:17.017Z,0.6
2017-12-08T16:58:17.629Z,0.7
2017-12-08T17:00:18.236Z,1
2017-12-08T17:02:17.852Z,0.7
2017-12-08T17:04:17.457Z,1.3
2017-12-08T17:06:17.064Z,1
2017-12-08T17:08:17.686Z,1.5
2017-12-08T17:10:17.294Z,1
2017-12-08T17:12:17.909Z,1
2017-12-08T17:14:17.538Z,0.9
2017-12-08T17:16:18.167Z,0.5
2017-12-08T17:18:17.801Z,0.6
2017-12-08T17:20:17.436Z,1
2017-12-08T17:22:18.074Z,0.7
2017-12-08T17:24:17.724Z,1.6
2017-12-08T17:26:17.352Z,2.3
2017-12-08T17:28:18.019Z,1.6
2017-12-08T17:30:17.628Z,1
2017-12-08T17:32:18.357Z,0.9
2017-12-08T17:34:17.920Z,2.1
2017-12-08T17:36:17.569Z,3.3
2017-12-08T17:38:18.216Z,1.6
2017-12-08T17:40:17.869Z,1.4
2017-12-08T17:42:17.524Z,1
2017-12-08T17:44:18.165Z,0.9
2017-12-08T17:46:16.820Z,1.2
2017-12-08T17:48:17.455Z,1.4
2017-12-08T17:50:18.101Z,1.6
2017-12-08T17:52:17.750Z,1.3
2017-12-08T17:54:17.402Z,0.8
2017-12-08T17:56:17.069Z,4.8
2017-12-08T17:58:17.699Z,2.6
2017-12-08T18:00:18.354Z,1
2017-12-08T18:02:18.018Z,1.5
2017-12-08T18:04:17.673Z,1.3
2017-12-08T18:06:17.326Z,2.7
2017-12-08T18:08:17.982Z,2.2
2017-12-08T18:10:17.640Z,1.8
2017-12-08T18:12:18.302Z,1.3
2017-12-08T18:14:17.954Z,1.2
2017-12-08T18:16:17.605Z,1.4
2017-12-08T18:18:18.277Z,1.5
2017-12-08T18:20:17.942Z,1.6
2017-12-08T18:22:17.597Z,1.3
2017-12-08T18:24:18.251Z,1.4
2017-12-08T18:26:16.926Z,1.4
2017-12-08T18:28:17.577Z,1.4
2017-12-08T18:30:18.227Z,1.2
2017-12-08T18:32:17.862Z,1.1
2017-12-08T18:34:17.507Z,1.2
2017-12-08T18:36:17.256Z,1.1
2017-12-08T18:38:17.838Z,1.4
2017-12-08T18:40:17.494Z,1.6
2017-12-08T18:42:18.188Z,1.6
2017-12-08T18:44:17.823Z,1.2
2017-12-08T18:46:17.464Z,1.3
2017-12-08T18:48:18.116Z,1.3
2017-12-08T18:50:17.768Z,1.1
2017-12-08T18:52:17.427Z,0.9
2017-12-08T18:54:18.087Z,1.1
2017-12-08T18:56:17.758Z,1
2017-12-08T18:58:17.417Z,1.2
2017-12-08T19:00:18.072Z,0.8
2017-12-08T19:02:17.730Z,1
2017-12-08T19:04:18.378Z,1.2
2017-12-08T19:06:17.044Z,1.1
2017-12-08T19:08:17.691Z,1
2017-12-08T19:10:17.336Z,1.3
2017-12-08T19:12:17.988Z,1.1
2017-12-08T19:14:17.637Z,1.2
2017-12-08T19:16:17.284Z,1.1
2017-12-08T19:18:17.914Z,1.4
2017-12-08T19:20:17.558Z,1.1
2017-12-08T19:22:18.207Z,1.1
2017-12-08T19:24:17.850Z,1.2
2017-12-08T19:26:17.499Z,1.4
2017-12-08T19:28:18.147Z,1.4
2017-12-08T19:30:17.801Z,1.3
2017-12-08T19:32:17.464Z,1.2
2017-12-08T19:34:18.102Z,1.5
2017-12-08T19:36:17.746Z,1.4
2017-12-08T19:38:18.374Z,1.1
2017-12-08T19:40:17.016Z,1.7
2017-12-08T19:42:17.667Z,2
2017-12-08T19:44:18.304Z,2.2
2017-12-08T19:46:16.951Z,2.6
2017-12-08T19:48:17.593Z,1.9
2017-12-08T19:50:18.218Z,2
2017-12-08T19:52:17.858Z,2.7
2017-12-08T19:54:17.505Z,2.1
2017-12-08T19:56:18.143Z,2.4
2017-12-08T19:58:17.801Z,2.8
2017-12-08T20:00:17.420Z,2.7
2017-12-08T20:02:18.062Z,2.6
2017-12-08T20:04:17.711Z,2.9
2017-12-08T20:06:17.336Z,3
2017-12-08T20:08:17.963Z,2.8
2017-12-08T20:10:17.591Z,3.1
2017-12-08T20:12:18.234Z,3
2017-12-08T20:14:17.876Z,3.1
2017-12-08T20:16:17.524Z,3.8
2017-12-08T20:18:18.169Z,2.9
2017-12-08T20:20:17.809Z,3
2017-12-08T20:22:17.461Z,2.8
2017-12-08T20:24:18.108Z,3.3
2017-12-08T20:26:17.748Z,2.8
2017-12-08T20:28:18.403Z,2.9
2017-12-08T20:30:18.038Z,3.5
2017-12-08T20:32:17.682Z,3.3
2017-12-08T20:34:18.320Z,3.6
2017-12-08T20:36:16.974Z,3.1
2017-12-08T20:38:17.612Z,3.2
2017-12-08T20:40:17.257Z,3.2
2017-12-08T20:42:17.894Z,3.5
2017-12-08T20:44:17.537Z,3.1
2017-12-08T20:46:18.183Z,2.7
2017-12-08T20:48:17.815Z,3.8
2017-12-08T20:50:17.446Z,2.9
2017-12-08T20:52:18.062Z,3.6
2017-12-08T20:54:17.685Z,3.3
2017-12-08T20:56:17.311Z,3.3
2017-12-08T20:58:17.945Z,3.4
2017-12-08T21:00:17.571Z,3.5
2017-12-08T21:02:18.195Z,3.4
2017-12-08T21:04:17.818Z,3.7
2017-12-08T21:06:17.455Z,2.6
2017-12-08T21:08:18.087Z,3.3
2017-12-08T21:10:17.711Z,3.4
2017-12-08T21:12:18.354Z,3
2017-12-08T21:14:17.992Z,2.5
2017-12-08T21:16:17.637Z,3
2017-12-08T21:18:18.286Z,3
2017-12-08T21:20:17.925Z,2.8
2017-12-08T21:22:17.551Z,3
2017-12-08T21:24:18.196Z,2.6
2017-12-08T21:26:16.840Z,2.5
2017-12-08T21:28:17.463Z,2.3
2017-12-08T21:30:18.086Z,2
2017-12-08T21:32:17.705Z,2.2
2017-12-08T21:34:18.331Z,2.1
2017-12-08T21:36:16.957Z,2.2
2017-12-08T21:38:17.578Z,2.1
2017-12-08T21:40:17.198Z,2.4
2017-12-08T21:42:17.810Z,1.9
2017-12-08T21:44:17.439Z,2.2
2017-12-08T21:46:18.057Z,2.9
2017-12-08T21:48:17.682Z,1.5
2017-12-08T21:50:18.306Z,2.2
2017-12-08T21:52:17.941Z,1.9
2017-12-08T21:54:17.564Z,2.4
2017-12-08T21:56:17.195Z,2.3
2017-12-08T21:58:17.813Z,2.2
2017-12-08T22:00:17.441Z,2.1
2017-12-08T22:02:18.067Z,2.6
2017-12-08T22:04:17.689Z,2.5
2017-12-08T22:06:17.331Z,1.7
2017-12-08T22:10:17.583Z,2.6
2017-12-08T22:12:18.203Z,2.1
2017-12-08T22:14:17.825Z,2.4
2017-12-08T22:16:17.443Z,2.7
2017-12-08T22:18:18.060Z,2.7
2017-12-08T22:20:17.674Z,3.3
2017-12-08T22:22:18.298Z,2.8
2017-12-08T22:24:17.907Z,2.8
2017-12-08T22:26:17.530Z,2.9
2017-12-08T22:28:18.142Z,2.8
2017-12-08T22:30:17.769Z,2.9
2017-12-08T22:32:17.391Z,3.3
2017-12-08T22:34:18.028Z,3.6
2017-12-08T22:36:17.658Z,3.4
2017-12-08T22:38:18.304Z,3.4
2017-12-08T22:40:17.915Z,3.8
2017-12-08T22:42:17.549Z,3.2
2017-12-08T22:44:18.171Z,3.5
2017-12-08T22:46:16.794Z,4
2017-12-08T22:48:17.416Z,3.5
2017-12-08T22:50:18.031Z,3.5
2017-12-08T22:52:17.654Z,3.4
2017-12-08T22:54:18.287Z,3.5
2017-12-08T22:56:16.906Z,2.7
2017-12-08T22:58:17.513Z,3.4
2017-12-08T23:00:18.138Z,4.1
2017-12-08T23:02:17.751Z,3.1
2017-12-08T23:04:17.378Z,3
2017-12-08T23:06:17.012Z,3.7
2017-12-08T23:08:17.628Z,3.5
2017-12-08T23:10:17.251Z,3.2
2017-12-08T23:12:17.868Z,2.7
2017-12-08T23:14:17.473Z,3.2
2017-12-08T23:16:17.080Z,2.9
2017-12-08T23:18:17.682Z,3.5
2017-12-08T23:20:18.280Z,2.5
2017-12-08T23:22:17.886Z,2.9
2017-12-08T23:24:17.480Z,3.2
2017-12-08T23:26:17.096Z,3.5
2017-12-08T23:28:17.690Z,3.4
2017-12-08T23:30:18.289Z,2.9
2017-12-08T23:32:17.898Z,2.3
2017-12-08T23:34:17.498Z,3.2
2017-12-08T23:36:17.098Z,3.2
2017-12-08T23:38:17.693Z,3
2017-12-08T23:40:17.292Z,3
2017-12-08T23:42:17.894Z,3.4
2017-12-08T23:44:17.479Z,2.3
2017-12-08T23:46:17.082Z,3.1
2017-12-08T23:48:17.674Z,2.6
2017-12-08T23:50:18.256Z,3.5
2017-12-08T23:52:17.852Z,2.9
2017-12-08T23:54:17.460Z,2.7
2017-12-08T23:56:18.052Z,2.2
2017-12-08T23:58:17.656Z,2.6
